Time;durP1;ratioP1;P1;durP2;ratioP2;P2;SDS_P1;SDS_P2;PMS_P1;PMS_P2;Temp;Humidity;BMP_temperature;BMP_pressure;BME280_temperature;BME280_humidity;BME280_pressure;Samples;Min_cycle;Max_cycle;Signal;HPM_P1;HPM_P2
2022/12/27 00:00:48;;;;;;;;;;;;;;;24.44;35.08;95861.84;5007844;28;1725;-71
2022/12/27 00:03:14;;;;;;;;;;;;;;;24.43;35.18;95860.19;5023252;28;1626;-71
2022/12/27 00:05:43;;;;;;;;;;;;;;;24.50;35.28;95876.28;5004392;28;1505;-71
2022/12/27 00:08:08;;;;;;;;;;;;;;;24.50;35.21;95870.91;4991016;28;1437;-70
2022/12/27 00:10:34;;;;;;;;;;;;;;;24.53;35.33;95867.81;5004141;28;1525;-72
2022/12/27 00:12:59;;;;;;;;;;;;;;;24.59;35.10;95868.81;5004178;28;1518;-74
2022/12/27 00:15:24;;;;;;;;;;;;;;;24.51;35.32;95877.13;5022360;28;1673;-73
2022/12/27 00:17:50;;;;;;;;;;;;;;;24.41;35.43;95875.63;5022748;28;1323;-73
2022/12/27 00:20:15;;;;;;;;;;;;;;;24.43;35.60;95868.25;4981610;28;976;-74
2022/12/27 00:22:40;;;;;;;;;;;;;;;24.43;35.49;95870.94;5000981;28;1735;-74
2022/12/27 00:25:06;;;;;;;;;;;;;;;24.39;35.68;95861.63;5009066;28;1706;-73
2022/12/27 00:27:31;;;;;;;;;;;;;;;24.37;35.64;95866.38;5010109;28;1716;-73
2022/12/27 00:29:56;;;;;;;;;;;;;;;24.36;35.76;95870.09;5004069;28;1667;-73
2022/12/27 00:32:21;;;;;;;;;;;;;;;24.32;35.92;95863.50;5005539;28;1958;-72
2022/12/27 00:34:47;;;;;;;;;;;;;;;24.44;36.04;95867.19;5010337;28;1501;-72
2022/12/27 00:37:12;;;;;;;;;;;;;;;24.46;36.08;95865.16;5010443;28;1562;-71
2022/12/27 00:39:37;;;;;;;;;;;;;;;24.50;35.98;95864.72;5010164;28;1663;-72
2022/12/27 00:42:02;;;;;;;;;;;;;;;24.51;35.79;95869.06;5016262;28;1186;-73
2022/12/27 00:44:28;;;;;;;;;;;;;;;24.53;36.13;95875.03;5009200;28;1573;-73
2022/12/27 00:46:53;;;;;;;;;;;;;;;24.50;35.79;95875.47;4997606;28;1602;-72
2022/12/27 00:49:18;;;;;;;;;;;;;;;24.49;35.96;95879.19;5004082;28;1660;-72
2022/12/27 00:51:43;;;;;;;;;;;;;;;24.53;35.90;95891.13;5000660;28;1963;-72
2022/12/27 00:54:09;;;;;;;;;;;;;;;24.50;36.10;95886.19;4992922;28;1671;-72
2022/12/27 00:56:34;;;;;;;;;;;;;;;24.52;35.95;95882.25;5004879;28;1689;-72
2022/12/27 00:59:01;;;;;;;;;;;;;;;24.49;36.08;95898.78;5002682;28;1701;-72
2022/12/27 01:01:27;;;;;;;;;;;;;;;24.49;36.07;95900.66;5012401;28;1605;-73
2022/12/27 01:03:52;;;;;;;;;;;;;;;24.47;36.10;95900.84;5012332;28;1695;-72
2022/12/27 01:06:20;;;;;;;;;;;;;;;24.51;36.08;95887.84;5015868;28;1636;-72
2022/12/27 01:08:45;;;;;;;;;;;;;;;24.53;36.45;95900.00;5009406;28;1510;-72
2022/12/27 01:11:11;;;;;;;;;;;;;;;24.60;36.08;95897.31;5002166;28;1906;-70
2022/12/27 01:13:37;;;;;;;;;;;;;;;24.79;35.75;95887.56;5007917;28;1719;-71
2022/12/27 01:16:07;;;;;;;;;;;;;;;24.88;35.58;95903.25;5004402;28;1570;-72
2022/12/27 01:18:32;;;;;;;;;;;;;;;24.93;35.52;95899.91;4997524;28;1721;-70
2022/12/27 01:20:58;;;;;;;;;;;;;;;24.96;35.33;95896.81;5007325;28;1645;-69
2022/12/27 01:23:24;;;;;;;;;;;;;;;24.97;35.61;95892.28;4996748;28;1680;-70
2022/12/27 01:25:57;;;;;;;;;;;;;;;24.97;35.56;95887.72;5034900;28;1709;-70
2022/12/27 01:28:23;;;;;;;;;;;;;;;24.97;35.49;95884.22;4995248;28;1796;-69
2022/12/27 01:30:48;;;;;;;;;;;;;;;24.98;35.38;95888.53;4999943;28;1961;-69
2022/12/27 01:33:13;;;;;;;;;;;;;;;25.00;35.44;95881.09;5019991;28;1794;-68
2022/12/27 01:35:38;;;;;;;;;;;;;;;24.95;35.35;95881.72;5005844;28;1561;-71
2022/12/27 01:38:04;;;;;;;;;;;;;;;24.92;35.42;95879.47;5005299;28;1650;-71
2022/12/27 01:40:29;;;;;;;;;;;;;;;24.90;35.63;95873.47;5025323;28;1577;-71
2022/12/27 01:42:55;;;;;;;;;;;;;;;24.87;35.42;95872.06;5008790;28;1653;-71
2022/12/27 01:45:27;;;;;;;;;;;;;;;24.84;35.84;95867.09;4996185;28;1725;-68
2022/12/27 01:47:59;;;;;;;;;;;;;;;24.82;35.74;95863.84;5004916;28;1628;-69
2022/12/27 01:50:28;;;;;;;;;;;;;;;24.82;35.71;95868.38;4988865;28;1420;-70
2022/12/27 01:52:59;;;;;;;;;;;;;;;24.82;35.81;95863.00;5008791;28;1898;-71
2022/12/27 01:55:39;;;;;;;;;;;;;;;24.81;35.79;95861.34;5004724;28;1563;-70
2022/12/27 01:58:25;;;;;;;;;;;;;;;24.79;35.63;95866.94;5030977;28;1533;-70
2022/12/27 02:00:51;;;;;;;;;;;;;;;24.78;35.84;95864.44;4992069;28;1818;-71
2022/12/27 02:03:19;;;;;;;;;;;;;;;24.82;36.03;95866.50;4984996;28;1804;-69
2022/12/27 02:05:44;;;;;;;;;;;;;;;24.88;35.77;95876.41;4999646;28;1912;-69
2022/12/27 02:08:15;;;;;;;;;;;;;;;24.92;35.97;95863.38;5027994;28;1741;-73
2022/12/27 02:10:41;;;;;;;;;;;;;;;24.95;35.88;95865.63;5010154;28;1906;-74
2022/12/27 02:13:06;;;;;;;;;;;;;;;24.98;35.92;95872.44;4991096;28;1725;-74
2022/12/27 02:15:32;;;;;;;;;;;;;;;25.00;35.68;95863.13;5004037;28;1672;-74
2022/12/27 02:17:57;;;;;;;;;;;;;;;25.00;35.92;95844.34;4996761;28;1839;-74
2022/12/27 02:20:23;;;;;;;;;;;;;;;25.03;35.71;95857.34;4994333;28;1512;-74
2022/12/27 02:26:11;;;;;;;;;;;;;;;25.03;35.78;95856.53;4988833;28;1851;-72
2022/12/27 02:28:47;;;;;;;;;;;;;;;25.03;35.87;95860.03;5001818;28;1386;-73
2022/12/27 02:31:17;;;;;;;;;;;;;;;25.04;35.77;95868.91;4992694;28;1966;-74
2022/12/27 02:33:44;;;;;;;;;;;;;;;25.06;35.76;95869.53;4997520;28;1437;-73
2022/12/27 02:36:14;;;;;;;;;;;;;;;25.07;35.71;95866.63;5003282;28;1686;-73
2022/12/27 02:38:41;;;;;;;;;;;;;;;25.06;35.87;95866.84;4982967;28;1636;-69
2022/12/27 02:55:41;;;;;;;;;;;;;;;24.88;35.78;95871.03;5009660;28;1439;-70
2022/12/27 02:58:21;;;;;;;;;;;;;;;24.84;35.95;95864.41;4988653;28;1984;-70
2022/12/27 03:04:00;;;;;;;;;;;;;;;24.81;36.36;95867.53;5000013;28;1698;-70
2022/12/27 03:06:41;;;;;;;;;;;;;;;24.81;36.26;95862.16;5018339;28;1670;-70
2022/12/27 03:18:15;;;;;;;;;;;;;;;24.79;36.25;95875.00;5002628;28;1367;-69
2022/12/27 03:26:11;;;;;;;;;;;;;;;24.79;36.58;95883.03;5000588;28;1485;-69
2022/12/27 03:39:50;;;;;;;;;;;;;;;24.76;36.20;95880.78;5003070;28;1390;-69
2022/12/27 03:45:04;;;;;;;;;;;;;;;24.75;36.24;95873.75;4988036;28;1713;-69
2022/12/27 03:47:46;;;;;;;;;;;;;;;24.75;36.47;95881.78;5001095;28;1357;-69
2022/12/27 03:50:18;;;;;;;;;;;;;;;24.74;36.32;95876.66;5003470;28;1495;-69
2022/12/27 03:52:48;;;;;;;;;;;;;;;24.75;36.35;95872.94;4991562;28;1971;-69
2022/12/27 03:55:15;;;;;;;;;;;;;;;24.74;36.58;95872.09;4993829;28;1725;-70
2022/12/27 03:57:40;;;;;;;;;;;;;;;24.74;36.65;95874.78;4999434;28;1711;-70
2022/12/27 04:00:06;;;;;;;;;;;;;;;24.74;36.58;95877.47;5000539;28;1781;-70
2022/12/27 04:02:31;;;;;;;;;;;;;;;24.75;36.63;95879.13;4991187;28;1798;-69
2022/12/27 04:04:57;;;;;;;;;;;;;;;24.75;36.58;95881.78;5001488;28;1641;-69
2022/12/27 04:07:22;;;;;;;;;;;;;;;24.75;36.65;95872.94;4986398;28;1721;-68
2022/12/27 04:37:07;;;;;;;;;;;;;;;24.67;37.00;95898.13;5012379;28;1538;-70
2022/12/27 04:39:32;;;;;;;;;;;;;;;24.68;36.95;95897.94;5036552;28;1857;-70
2022/12/27 04:55:55;;;;;;;;;;;;;;;24.66;37.17;95917.94;5012480;28;1522;-71
2022/12/27 04:58:20;;;;;;;;;;;;;;;24.65;36.95;95921.69;5002037;28;1569;-71
2022/12/27 05:03:29;;;;;;;;;;;;;;;24.67;36.95;95922.28;4989953;28;1145;-70
2022/12/27 05:05:54;;;;;;;;;;;;;;;24.67;37.03;95924.94;5006717;28;1792;-69
2022/12/27 05:14:00;;;;;;;;;;;;;;;24.64;37.02;95902.03;4999316;28;1436;-69
2022/12/27 05:16:26;;;;;;;;;;;;;;;24.64;37.22;95899.34;5024520;28;1910;-69
2022/12/27 05:18:52;;;;;;;;;;;;;;;24.66;37.15;95896.47;5027663;28;1768;-71
2022/12/27 05:21:17;;;;;;;;;;;;;;;24.66;37.06;95889.25;5003878;28;1532;-72
2022/12/27 05:26:27;;;;;;;;;;;;;;;24.66;37.10;95886.56;4991873;28;1571;-71
2022/12/27 05:28:53;;;;;;;;;;;;;;;24.67;36.93;95887.38;4990934;28;1671;-71
2022/12/27 05:31:19;;;;;;;;;;;;;;;24.67;36.92;95884.69;5005434;28;1958;-70
2022/12/27 05:33:45;;;;;;;;;;;;;;;24.67;37.09;95879.34;5015707;28;1695;-71
2022/12/27 05:36:10;;;;;;;;;;;;;;;24.67;37.04;95868.59;5028700;28;1773;-71
2022/12/27 05:38:36;;;;;;;;;;;;;;;24.66;36.87;95865.09;4988627;28;1641;-72
2022/12/27 05:41:01;;;;;;;;;;;;;;;24.65;37.05;95868.81;5006562;28;1743;-70
2022/12/27 05:43:27;;;;;;;;;;;;;;;24.66;36.65;95866.97;5005542;28;1807;-70
2022/12/27 05:45:53;;;;;;;;;;;;;;;24.65;36.83;95859.97;5011721;28;1782;-69
2022/12/27 05:48:18;;;;;;;;;;;;;;;24.65;36.85;95876.88;5030199;28;1501;-69
2022/12/27 05:50:43;;;;;;;;;;;;;;;24.65;36.87;95873.38;4984409;28;1583;-70
2022/12/27 05:53:09;;;;;;;;;;;;;;;24.65;36.94;95887.63;5024595;28;1902;-70
2022/12/27 05:55:34;;;;;;;;;;;;;;;24.64;36.83;95894.00;4993138;28;1677;-70
2022/12/27 05:58:00;;;;;;;;;;;;;;;24.64;36.74;95894.00;5009875;28;1410;-69
2022/12/27 06:00:25;;;;;;;;;;;;;;;24.65;37.11;95894.84;5020513;28;1753;-71
2022/12/27 06:02:50;;;;;;;;;;;;;;;24.64;36.97;95903.91;4997124;28;1615;-70
2022/12/27 06:05:15;;;;;;;;;;;;;;;24.64;37.01;95898.53;5032711;28;1536;-70
2022/12/27 06:07:41;;;;;;;;;;;;;;;24.63;37.08;95908.47;5009574;28;1725;-71
2022/12/27 06:10:07;;;;;;;;;;;;;;;24.64;36.87;95907.41;4993418;28;1677;-69
2022/12/27 06:12:33;;;;;;;;;;;;;;;24.64;37.00;95909.28;4993979;28;1957;-69
2022/12/27 06:14:58;;;;;;;;;;;;;;;24.63;37.19;95919.19;5025766;28;1626;-69
2022/12/27 06:17:23;;;;;;;;;;;;;;;24.64;36.85;95931.56;4994093;28;1558;-70
2022/12/27 06:19:49;;;;;;;;;;;;;;;24.65;36.93;95932.41;5003314;28;1523;-70
2022/12/27 06:22:14;;;;;;;;;;;;;;;24.66;37.21;95942.09;5005059;28;1833;-71
2022/12/27 06:24:39;;;;;;;;;;;;;;;24.65;37.21;95932.41;4983223;28;1527;-70
2022/12/27 06:27:04;;;;;;;;;;;;;;;24.65;37.19;95935.09;5023912;28;1695;-70
2022/12/27 06:29:30;;;;;;;;;;;;;;;24.65;37.17;95933.22;4999148;28;1792;-69
2022/12/27 06:31:55;;;;;;;;;;;;;;;24.65;37.21;95933.22;5003765;28;1910;-70
2022/12/27 06:34:20;;;;;;;;;;;;;;;24.66;37.05;95928.69;4995394;28;1413;-70
2022/12/27 06:36:49;;;;;;;;;;;;;;;24.66;37.06;95934.03;4983262;28;1268;-69
2022/12/27 06:39:15;;;;;;;;;;;;;;;24.65;37.26;95937.78;5026736;28;1446;-70
2022/12/27 06:41:40;;;;;;;;;;;;;;;24.64;37.29;95928.88;5022858;28;1666;-70
2022/12/27 06:44:05;;;;;;;;;;;;;;;24.66;37.16;95923.31;5006711;28;1667;-69
2022/12/27 06:46:31;;;;;;;;;;;;;;;24.66;37.47;95921.44;5000643;28;1513;-68
2022/12/27 06:48:56;;;;;;;;;;;;;;;24.67;37.37;95928.44;4993555;28;1491;-70
2022/12/27 06:51:21;;;;;;;;;;;;;;;24.67;37.36;95931.13;5009304;28;1969;-68
2022/12/27 06:53:47;;;;;;;;;;;;;;;24.67;37.28;95931.13;5032055;28;1495;-72
2022/12/27 06:56:16;;;;;;;;;;;;;;;24.52;37.79;95922.50;4992389;28;1471;-73
2022/12/27 06:58:42;;;;;;;;;;;;;;;24.42;37.91;95914.84;4981167;28;1559;-72
2022/12/27 07:01:11;;;;;;;;;;;;;;;24.33;37.96;95915.25;4994593;28;1635;-73
2022/12/27 07:03:37;;;;;;;;;;;;;;;23.90;29.82;95916.47;5003126;28;1496;-67
2022/12/27 07:06:03;;;;;;;;;;;;;;;22.96;33.15;95922.53;5010601;28;1530;-67
2022/12/27 07:08:28;;;;;;;;;;;;;;;22.67;29.47;95923.59;5002785;28;1602;-73
2022/12/27 07:10:58;;;;;;;;;;;;;;;21.61;27.74;95914.69;4998368;28;1883;-67
2022/12/27 07:13:23;;;;;;;;;;;;;;;20.74;27.86;95923.44;5031497;28;1604;-66
2022/12/27 07:15:48;;;;;;;;;;;;;;;20.29;28.22;95915.41;5001636;28;1424;-68
2022/12/27 07:18:13;;;;;;;;;;;;;;;19.89;28.03;95917.38;4995637;28;1494;-68
2022/12/27 07:20:39;;;;;;;;;;;;;;;19.54;28.17;95916.94;4999966;28;1397;-69
2022/12/27 07:23:04;;;;;;;;;;;;;;;19.28;28.70;95909.31;4997203;28;1645;-67
2022/12/27 07:25:29;;;;;;;;;;;;;;;19.09;28.13;95899.91;5025333;28;1444;-67
2022/12/27 07:27:54;;;;;;;;;;;;;;;18.78;28.81;95899.06;4990580;28;1353;-68
2022/12/27 07:30:23;;;;;;;;;;;;;;;18.62;28.71;95907.91;4990705;28;1524;-67
2022/12/27 07:32:48;;;;;;;;;;;;;;;18.44;28.86;95908.13;4983686;28;1899;-67
2022/12/27 07:35:13;;;;;;;;;;;;;;;18.40;29.11;95914.78;4999644;28;1373;-68
2022/12/27 07:37:39;;;;;;;;;;;;;;;18.26;28.95;95918.13;4991168;28;1595;-68
2022/12/27 07:40:04;;;;;;;;;;;;;;;18.15;29.29;95914.00;4991680;28;1567;-67
2022/12/27 07:42:30;;;;;;;;;;;;;;;18.14;29.01;95907.84;4991380;28;1679;-68
2022/12/27 07:44:55;;;;;;;;;;;;;;;17.97;29.17;95914.19;4981457;28;1550;-69
2022/12/27 07:47:20;;;;;;;;;;;;;;;17.86;29.46;95914.50;4995655;28;1460;-70
2022/12/27 07:49:45;;;;;;;;;;;;;;;18.01;29.41;95910.19;4997455;28;1509;-69
2022/12/27 07:52:11;;;;;;;;;;;;;;;17.97;29.33;95898.25;5003299;28;1961;-68
2022/12/27 07:54:36;;;;;;;;;;;;;;;17.84;29.46;95908.53;5022265;28;1687;-68
2022/12/27 07:57:01;;;;;;;;;;;;;;;17.84;29.44;95908.53;4996997;28;1366;-68
2022/12/27 07:59:26;;;;;;;;;;;;;;;17.85;29.39;95910.22;5021567;28;1385;-68
2022/12/27 08:02:04;;;;;;;;;;;;;;;17.80;29.55;95913.34;4990976;28;1440;-67
2022/12/27 08:04:30;;;;;;;;;;;;;;;17.63;30.77;95915.13;4992734;28;1687;-68
2022/12/27 08:07:11;;;;;;;;;;;;;;;17.37;31.20;95922.41;4990791;28;1514;-68
2022/12/27 08:09:38;;;;;;;;;;;;;;;17.21;32.42;95934.63;5012273;28;1537;-73
2022/12/27 08:12:03;;;;;;;;;;;;;;;17.70;30.85;95926.75;4989258;28;1910;-76
2022/12/27 08:14:28;;;;;;;;;;;;;;;17.87;30.71;95927.63;5023933;28;1432;-72
2022/12/27 08:16:55;;;;;;;;;;;;;;;17.94;30.75;95930.44;5001820;28;2107;-72
2022/12/27 08:19:21;;;;;;;;;;;;;;;18.22;30.48;95927.44;4989361;28;1695;-71
2022/12/27 08:21:46;;;;;;;;;;;;;;;18.22;30.51;95922.94;5024708;28;1582;-71
2022/12/27 08:24:11;;;;;;;;;;;;;;;18.25;30.34;95927.94;5006672;28;1556;-73
2022/12/27 08:26:36;;;;;;;;;;;;;;;18.35;30.61;95928.56;5003034;28;1445;-74
2022/12/27 08:29:02;;;;;;;;;;;;;;;18.36;30.31;95932.06;5018698;28;1358;-69
2022/12/27 08:31:27;;;;;;;;;;;;;;;18.28;29.97;95932.91;5005231;28;1902;-74
2022/12/27 08:33:54;;;;;;;;;;;;;;;18.37;30.28;95931.06;4996904;28;1524;-73
2022/12/27 08:36:19;;;;;;;;;;;;;;;18.58;30.33;95923.34;5000730;28;1398;-76
2022/12/27 08:38:44;;;;;;;;;;;;;;;18.70;30.28;95920.31;5034069;28;1648;-75
2022/12/27 08:41:10;;;;;;;;;;;;;;;18.79;30.65;95924.69;4988905;28;1470;-74
2022/12/27 08:43:35;;;;;;;;;;;;;;;19.20;30.98;95914.66;4987981;28;1485;-74
2022/12/27 08:46:01;;;;;;;;;;;;;;;19.71;31.42;95906.22;5000313;28;1610;-74
2022/12/27 08:48:27;;;;;;;;;;;;;;;20.13;31.55;95899.56;4999286;28;1553;-72
2022/12/27 08:50:52;;;;;;;;;;;;;;;20.17;31.06;95900.84;5025066;28;1536;-72
2022/12/27 08:53:17;;;;;;;;;;;;;;;20.37;31.15;95903.81;4989895;28;1911;-73
2022/12/27 08:55:43;;;;;;;;;;;;;;;20.57;31.49;95898.78;5001398;28;1784;-72
2022/12/27 08:58:09;;;;;;;;;;;;;;;20.74;31.29;95900.25;5006105;28;1648;-74
2022/12/27 09:00:35;;;;;;;;;;;;;;;20.96;31.47;95893.16;5030598;28;1609;-72
2022/12/27 09:03:00;;;;;;;;;;;;;;;20.90;31.09;95891.25;4995662;28;1691;-73
2022/12/27 09:05:26;;;;;;;;;;;;;;;20.97;31.18;95894.00;5008071;28;1829;-74
2022/12/27 09:07:52;;;;;;;;;;;;;;;21.09;31.32;95888.00;4987298;28;1538;-74
2022/12/27 09:10:17;;;;;;;;;;;;;;;21.22;31.30;95886.50;5000201;28;1637;-73
2022/12/27 09:12:44;;;;;;;;;;;;;;;21.33;31.26;95888.66;5024432;28;1910;-73
2022/12/27 09:15:10;;;;;;;;;;;;;;;21.42;31.25;95881.41;5007204;28;1740;-73
2022/12/27 09:17:35;;;;;;;;;;;;;;;21.51;31.16;95861.56;4993526;28;1691;-74
2022/12/27 09:20:00;;;;;;;;;;;;;;;21.57;31.14;95863.47;5018393;28;1802;-73
2022/12/27 09:22:27;;;;;;;;;;;;;;;21.65;31.20;95865.19;5038893;28;1703;-73
2022/12/27 09:24:52;;;;;;;;;;;;;;;21.71;31.01;95859.09;5004358;28;1519;-73
2022/12/27 09:27:17;;;;;;;;;;;;;;;21.76;31.08;95854.81;5003826;28;1719;-73
2022/12/27 09:29:42;;;;;;;;;;;;;;;21.73;31.08;95862.41;5011680;28;1686;-72
2022/12/27 09:32:07;;;;;;;;;;;;;;;21.76;31.19;95851.34;5012477;28;1926;-72
2022/12/27 09:34:33;;;;;;;;;;;;;;;21.83;31.30;95851.38;5008211;28;1932;-73
2022/12/27 09:36:58;;;;;;;;;;;;;;;21.50;29.91;95849.25;5028494;28;1666;-73
2022/12/27 09:39:23;;;;;;;;;;;;;;;21.15;30.36;95856.25;4993143;28;1765;-73
2022/12/27 09:41:55;;;;;;;;;;;;;;;20.95;30.59;95856.03;5012697;28;1656;-73
2022/12/27 09:44:20;;;;;;;;;;;;;;;20.66;30.27;95850.53;5010034;28;1638;-73
2022/12/27 09:46:48;;;;;;;;;;;;;;;20.49;30.50;95842.88;5002638;28;1444;-73
2022/12/27 09:49:17;;;;;;;;;;;;;;;20.24;30.31;95853.00;5010269;28;1445;-72
2022/12/27 09:51:46;;;;;;;;;;;;;;;20.16;30.41;95840.59;5004222;28;1910;-73
2022/12/27 09:54:18;;;;;;;;;;;;;;;20.05;30.32;95825.03;5013335;28;1745;-74
2022/12/27 09:56:43;;;;;;;;;;;;;;;19.93;30.44;95838.81;4993616;28;1195;-73
2022/12/27 09:59:14;;;;;;;;;;;;;;;19.96;30.85;95834.97;5012746;28;1706;-73
2022/12/27 10:01:40;;;;;;;;;;;;;;;20.00;30.48;95836.22;5029828;28;1408;-72
2022/12/27 10:04:10;;;;;;;;;;;;;;;20.07;31.21;95844.34;4992470;28;1826;-72
2022/12/27 10:06:41;;;;;;;;;;;;;;;19.98;30.65;95847.09;5000139;28;1436;-73
2022/12/27 10:09:22;;;;;;;;;;;;;;;19.98;30.63;95827.63;5023733;28;1663;-72
2022/12/27 10:12:06;;;;;;;;;;;;;;;20.03;30.54;95824.41;5012774;28;1898;-73
2022/12/27 10:14:38;;;;;;;;;;;;;;;19.90;30.45;95812.53;5025892;28;1712;-73
2022/12/27 10:17:03;;;;;;;;;;;;;;;20.05;31.06;95806.41;5026231;28;1717;-73
2022/12/27 10:19:28;;;;;;;;;;;;;;;20.10;30.98;95794.19;5023852;28;1721;-74
2022/12/27 10:22:08;;;;;;;;;;;;;;;20.08;30.56;95787.38;4997232;28;1760;-72
2022/12/27 10:24:38;;;;;;;;;;;;;;;20.04;30.44;95794.09;4997830;28;1387;-72
2022/12/27 10:27:10;;;;;;;;;;;;;;;20.06;31.28;95797.38;4991657;28;1391;-74
2022/12/27 10:29:35;;;;;;;;;;;;;;;20.09;31.24;95789.84;4993925;28;1434;-72
2022/12/27 10:32:01;;;;;;;;;;;;;;;20.15;31.16;95793.63;5020943;28;1902;-73
2022/12/27 10:34:26;;;;;;;;;;;;;;;20.24;31.58;95791.72;4992426;28;1401;-73
2022/12/27 10:36:51;;;;;;;;;;;;;;;20.23;31.19;95796.19;4986746;28;1707;-72
2022/12/27 10:39:18;;;;;;;;;;;;;;;20.22;31.17;95794.56;5005662;28;1780;-73
2022/12/27 10:41:59;;;;;;;;;;;;;;;20.22;31.02;95800.69;5033267;28;1772;-73
2022/12/27 10:44:24;;;;;;;;;;;;;;;20.13;30.40;95795.66;4994712;28;1700;-73
2022/12/27 10:46:51;;;;;;;;;;;;;;;20.12;30.43;95794.84;5010565;28;1719;-74
2022/12/27 10:49:21;;;;;;;;;;;;;;;20.12;30.52;95796.66;5002064;28;1698;-73
2022/12/27 10:51:48;;;;;;;;;;;;;;;20.10;30.24;95798.69;5040266;28;1910;-74
2022/12/27 10:54:14;;;;;;;;;;;;;;;20.15;30.41;95782.97;4994617;28;1572;-74
2022/12/27 10:56:41;;;;;;;;;;;;;;;20.20;30.85;95791.25;4997164;28;1392;-73
2022/12/27 10:59:06;;;;;;;;;;;;;;;20.27;30.92;95778.84;4993033;28;1563;-73
2022/12/27 11:01:32;;;;;;;;;;;;;;;20.31;30.80;95785.44;4997345;28;1464;-72
2022/12/27 11:04:07;;;;;;;;;;;;;;;20.33;31.44;95785.28;5003068;28;1659;-73
2022/12/27 11:06:32;;;;;;;;;;;;;;;20.37;31.62;95789.22;4991962;28;1404;-74
2022/12/27 11:08:57;;;;;;;;;;;;;;;20.38;31.25;95777.56;4990442;28;1544;-73
2022/12/27 11:11:24;;;;;;;;;;;;;;;20.30;30.99;95781.13;4975707;28;1879;-73
2022/12/27 11:13:50;;;;;;;;;;;;;;;20.19;30.61;95773.59;5005553;28;1542;-74
2022/12/27 11:16:15;;;;;;;;;;;;;;;20.11;30.72;95785.19;5006389;28;1533;-74
2022/12/27 11:18:49;;;;;;;;;;;;;;;20.07;31.02;95785.75;5004537;28;1519;-74
2022/12/27 11:21:15;;;;;;;;;;;;;;;19.99;30.75;95784.81;4993592;28;1566;-76
2022/12/27 11:23:43;;;;;;;;;;;;;;;20.01;30.84;95787.31;4983042;28;1540;-72
2022/12/27 11:26:16;;;;;;;;;;;;;;;19.99;31.11;95784.81;5023361;28;1564;-72
2022/12/27 11:28:44;;;;;;;;;;;;;;;19.98;31.15;95777.84;5003271;28;1665;-72
2022/12/27 11:31:17;;;;;;;;;;;;;;;20.04;31.16;95770.13;4993608;28;1951;-78
2022/12/27 11:33:50;;;;;;;;;;;;;;;20.03;31.04;95771.13;4981913;28;1455;-74
2022/12/27 11:36:42;;;;;;;;;;;;;;;20.00;31.04;95770.47;5001261;28;1532;-73
2022/12/27 11:39:07;;;;;;;;;;;;;;;19.94;31.16;95775.72;4996256;28;1503;-77
2022/12/27 11:41:33;;;;;;;;;;;;;;;19.91;31.10;95771.56;5005851;28;1433;-74
2022/12/27 11:44:02;;;;;;;;;;;;;;;19.94;31.12;95767.72;5008332;28;1439;-73
2022/12/27 11:46:30;;;;;;;;;;;;;;;19.89;30.93;95780.75;4996389;28;1506;-71
2022/12/27 11:48:59;;;;;;;;;;;;;;;19.94;31.07;95775.72;5014229;28;1771;-75
2022/12/27 11:51:24;;;;;;;;;;;;;;;19.99;31.09;95778.66;5022842;28;1964;-74
2022/12/27 11:54:02;;;;;;;;;;;;;;;20.08;31.51;95771.41;5005539;28;1585;-72
2022/12/27 11:56:31;;;;;;;;;;;;;;;19.95;31.05;95772.88;4992277;28;1445;-72
2022/12/27 11:59:15;;;;;;;;;;;;;;;20.06;31.20;95779.56;4990541;28;1674;-72
2022/12/27 12:01:46;;;;;;;;;;;;;;;20.11;31.62;95773.69;5015545;28;1554;-73
2022/12/27 12:04:20;;;;;;;;;;;;;;;20.26;31.72;95776.34;4989300;28;1534;-73
2022/12/27 12:06:48;;;;;;;;;;;;;;;20.41;31.75;95766.53;4988356;28;1578;-73
2022/12/27 12:09:27;;;;;;;;;;;;;;;20.46;31.65;95772.09;4980943;28;1389;-73
2022/12/27 12:11:52;;;;;;;;;;;;;;;20.64;31.59;95777.09;4987916;28;1973;-71
2022/12/27 12:14:29;;;;;;;;;;;;;;;20.80;31.72;95768.84;4990063;28;1456;-72
2022/12/27 12:17:00;;;;;;;;;;;;;;;20.99;31.70;95769.25;4990823;28;1287;-73
2022/12/27 12:19:38;;;;;;;;;;;;;;;21.10;31.57;95763.44;4981736;28;1488;-73
2022/12/27 12:22:03;;;;;;;;;;;;;;;21.21;31.45;95756.75;4990603;28;1291;-73
2022/12/27 12:24:31;;;;;;;;;;;;;;;21.30;31.43;95761.75;4990143;28;1404;-71
2022/12/27 12:27:12;;;;;;;;;;;;;;;21.38;31.41;95752.03;4991832;28;1555;-71
2022/12/27 12:29:40;;;;;;;;;;;;;;;21.44;31.31;95757.41;5026130;28;1698;-73
2022/12/27 12:32:13;;;;;;;;;;;;;;;21.49;31.17;95752.31;4990607;28;1898;-71
2022/12/27 12:34:48;;;;;;;;;;;;;;;21.55;31.38;95761.41;5010541;28;1670;-74
2022/12/27 12:37:23;;;;;;;;;;;;;;;21.61;31.13;95773.97;5032635;28;1440;-72
2022/12/27 12:39:51;;;;;;;;;;;;;;;21.67;31.16;95775.88;5008703;28;1535;-72
2022/12/27 12:42:28;;;;;;;;;;;;;;;21.70;31.10;95788.84;5001716;28;1075;-72
2022/12/27 12:45:11;;;;;;;;;;;;;;;21.74;31.14;95783.91;5011620;28;1803;-73
2022/12/27 12:47:44;;;;;;;;;;;;;;;21.76;30.74;95782.72;5011904;28;1714;-72
2022/12/27 12:50:18;;;;;;;;;;;;;;;21.80;30.99;95788.50;4975270;28;1223;-72
2022/12/27 12:53:04;;;;;;;;;;;;;;;21.84;30.76;95786.28;5008338;28;1977;-71
2022/12/27 12:55:35;;;;;;;;;;;;;;;21.87;30.88;95784.03;4991939;28;1607;-73
2022/12/27 12:58:32;;;;;;;;;;;;;;;21.89;30.67;95787.34;5014116;28;1729;-71
2022/12/27 13:01:15;;;;;;;;;;;;;;;21.93;30.91;95785.09;5012534;28;1207;-72
2022/12/27 13:03:59;;;;;;;;;;;;;;;21.97;30.74;95791.69;5012617;28;1612;-72
2022/12/27 13:06:43;;;;;;;;;;;;;;;21.99;30.64;95789.66;5001502;28;1579;-72
2022/12/27 13:09:23;;;;;;;;;;;;;;;22.02;30.57;95786.59;5025259;28;1569;-71
2022/12/27 13:12:03;;;;;;;;;;;;;;;22.04;30.55;95800.59;4994296;28;1964;-72
2022/12/27 13:14:40;;;;;;;;;;;;;;;22.07;30.75;95802.03;4994555;28;894;-73
2022/12/27 13:17:17;;;;;;;;;;;;;;;22.09;30.52;95805.34;5020559;28;1699;-72
2022/12/27 13:19:54;;;;;;;;;;;;;;;22.10;30.75;95805.16;5012428;28;1748;-73
2022/12/27 13:22:29;;;;;;;;;;;;;;;22.14;30.76;95810.91;5013581;28;1670;-73
2022/12/27 13:25:06;;;;;;;;;;;;;;;22.15;30.66;95813.41;5013513;28;949;-73
2022/12/27 13:27:34;;;;;;;;;;;;;;;22.17;30.50;95826.56;4997376;28;1559;-73
2022/12/27 13:30:18;;;;;;;;;;;;;;;22.19;30.40;95812.00;4999324;28;1762;-71
2022/12/27 13:32:55;;;;;;;;;;;;;;;22.22;30.73;95824.16;5002120;28;1902;-72
2022/12/27 13:35:30;;;;;;;;;;;;;;;22.23;30.63;95832.00;4997377;28;1704;-72
2022/12/27 13:37:55;;;;;;;;;;;;;;;22.26;30.55;95833.47;4990677;28;1528;-73
2022/12/27 13:40:21;;;;;;;;;;;;;;;22.29;30.38;95833.06;4982513;28;1527;-73
2022/12/27 13:42:56;;;;;;;;;;;;;;;22.31;30.45;95832.84;4993137;28;1535;-71
2022/12/27 13:45:39;;;;;;;;;;;;;;;22.32;30.47;95848.72;4993435;28;890;-71
2022/12/27 13:48:23;;;;;;;;;;;;;;;22.33;30.38;95846.84;4993271;28;1423;-72
2022/12/27 13:51:07;;;;;;;;;;;;;;;22.34;30.34;95854.69;4986970;28;1667;-72
2022/12/27 13:53:35;;;;;;;;;;;;;;;22.35;30.39;95851.00;5007584;28;1915;-72
2022/12/27 13:56:19;;;;;;;;;;;;;;;22.36;30.39;95849.94;5019286;28;1723;-72
2022/12/27 13:58:56;;;;;;;;;;;;;;;22.38;30.58;95855.13;5009464;28;1564;-73
2022/12/27 14:01:35;;;;;;;;;;;;;;;22.39;30.65;95857.59;5006854;28;1358;-73
2022/12/27 14:04:21;;;;;;;;;;;;;;;22.41;30.35;95852.88;4998299;28;1732;-72
2022/12/27 14:06:52;;;;;;;;;;;;;;;22.42;30.22;95846.50;5012221;28;1773;-72
2022/12/27 14:09:29;;;;;;;;;;;;;;;22.46;30.52;95857.63;5011746;28;1415;-71
2022/12/27 14:12:04;;;;;;;;;;;;;;;22.47;30.28;95855.78;5008823;28;1902;-72
2022/12/27 14:14:30;;;;;;;;;;;;;;;22.47;30.29;95864.63;5003166;28;1718;-72
2022/12/27 14:17:14;;;;;;;;;;;;;;;22.48;30.29;95866.28;5010251;28;1758;-72
2022/12/27 14:19:39;;;;;;;;;;;;;;;22.50;30.51;95861.56;5026535;28;1600;-72
2022/12/27 14:22:11;;;;;;;;;;;;;;;22.50;30.28;95861.56;5011629;28;1730;-72
2022/12/27 14:24:45;;;;;;;;;;;;;;;22.53;30.41;95868.38;5023337;28;1749;-71
2022/12/27 14:27:26;;;;;;;;;;;;;;;22.53;30.48;95863.84;5007678;28;1731;-72
2022/12/27 14:30:06;;;;;;;;;;;;;;;22.55;30.50;95877.03;4999621;28;1618;-72
2022/12/27 14:32:40;;;;;;;;;;;;;;;22.54;30.27;95868.19;5018157;28;1956;-72
2022/12/27 14:35:29;;;;;;;;;;;;;;;22.56;30.25;95868.78;5010964;28;1578;-75
2022/12/27 14:38:06;;;;;;;;;;;;;;;22.58;30.26;95881.97;4988747;28;1785;-73
2022/12/27 14:40:50;;;;;;;;;;;;;;;22.59;30.25;95887.13;4994514;28;1783;-71
2022/12/27 14:43:35;;;;;;;;;;;;;;;22.61;30.43;95886.94;4992152;28;1485;-72
2022/12/27 14:46:00;;;;;;;;;;;;;;;22.62;30.41;95878.69;4993240;28;1626;-70
2022/12/27 14:48:44;;;;;;;;;;;;;;;22.62;30.24;95889.41;4985935;28;1648;-71